Time;durP1;ratioP1;P1;durP2;ratioP2;P2;SDS_P1;SDS_P2;PMS_P1;PMS_P2;Temp;Humidity;BMP_temperature;BMP_pressure;BME280_temperature;BME280_humidity;BME280_pressure;Samples;Min_cycle;Max_cycle;Signal;HPM_P1;HPM_P2
2022/03/07 00:01:41;;;;;;;32.58;24.67;;;;;;;;;;5037322;28;20786;-79
2022/03/07 00:04:07;;;;;;;30.50;24.55;;;;;;;;;;5038440;28;20848;-78
2022/03/07 00:06:33;;;;;;;31.10;24.08;;;;;;;;;;5039023;28;20487;-78
2022/03/07 00:09:00;;;;;;;30.50;23.25;;;;;;;;;;5039800;28;20476;-79
2022/03/07 00:11:26;;;;;;;29.60;24.88;;;;;;;;;;5038527;28;20419;-79
2022/03/07 00:13:52;;;;;;;36.05;24.75;;;;;;;;;;5038146;28;20435;-79
2022/03/07 00:16:20;;;;;;;31.42;25.08;;;;;;;;;;5043204;28;20425;-78
2022/03/07 00:18:47;;;;;;;34.70;25.00;;;;;;;;;;5036693;28;20437;-78
2022/03/07 00:21:13;;;;;;;28.67;23.80;;;;;;;;;;5039019;28;20420;-79
2022/03/07 00:23:40;;;;;;;26.50;23.05;;;;;;;;;;5038324;28;20513;-78
2022/03/07 00:26:06;;;;;;;28.85;23.02;;;;;;;;;;5036357;28;20426;-78
2022/03/07 00:28:32;;;;;;;28.75;22.95;;;;;;;;;;5035711;28;20436;-78
2022/03/07 00:30:59;;;;;;;28.90;23.00;;;;;;;;;;5042224;28;20619;-78
2022/03/07 00:33:26;;;;;;;28.92;22.30;;;;;;;;;;5035065;28;20487;-79
2022/03/07 00:35:52;;;;;;;29.20;23.17;;;;;;;;;;5036543;28;20423;-78
2022/03/07 00:38:19;;;;;;;26.17;21.85;;;;;;;;;;5036292;28;20427;-79
2022/03/07 00:40:45;;;;;;;26.80;22.70;;;;;;;;;;5036842;28;20436;-78
2022/03/07 00:43:12;;;;;;;28.85;22.27;;;;;;;;;;5035463;28;20430;-78
2022/03/07 00:45:38;;;;;;;24.83;20.95;;;;;;;;;;5036534;28;20430;-78
2022/03/07 00:48:05;;;;;;;27.38;22.30;;;;;;;;;;5036952;28;20859;-78
2022/03/07 00:50:32;;;;;;;22.50;19.73;;;;;;;;;;5037715;28;20762;-78
2022/03/07 00:52:59;;;;;;;29.30;22.40;;;;;;;;;;5037240;28;20498;-80
2022/03/07 00:55:25;;;;;;;29.15;22.55;;;;;;;;;;5037872;28;20446;-78
2022/03/07 00:57:51;;;;;;;27.25;22.35;;;;;;;;;;5038832;28;20433;-78
2022/03/07 01:00:18;;;;;;;27.90;21.15;;;;;;;;;;5035147;28;20804;-78
2022/03/07 01:02:44;;;;;;;30.05;22.75;;;;;;;;;;5036489;28;20806;-79
2022/03/07 01:05:11;;;;;;;27.42;22.27;;;;;;;;;;5037988;28;20434;-79
2022/03/07 01:07:39;;;;;;;26.00;20.58;;;;;;;;;;5038486;28;20429;-79
2022/03/07 01:10:06;;;;;;;26.98;20.48;;;;;;;;;;5036935;28;20413;-79
2022/03/07 01:12:32;;;;;;;26.70;21.17;;;;;;;;;;5036021;28;20927;-79
2022/03/07 01:14:58;;;;;;;28.33;21.40;;;;;;;;;;5035688;28;20445;-79
2022/03/07 01:17:25;;;;;;;25.33;20.10;;;;;;;;;;5037041;28;20910;-79
2022/03/07 01:19:51;;;;;;;29.35;21.75;;;;;;;;;;5035036;28;20438;-77
2022/03/07 01:22:17;;;;;;;26.10;21.50;;;;;;;;;;5035368;28;20423;-78
2022/03/07 01:24:45;;;;;;;26.00;20.60;;;;;;;;;;5038818;28;20424;-78
2022/03/07 01:27:11;;;;;;;26.75;19.83;;;;;;;;;;5035915;28;20422;-76
2022/03/07 01:29:37;;;;;;;24.27;20.67;;;;;;;;;;5036636;28;20421;-78
2022/03/07 01:32:04;;;;;;;23.70;20.25;;;;;;;;;;5034323;28;20795;-78
2022/03/07 01:34:30;;;;;;;26.20;20.30;;;;;;;;;;5037872;28;20477;-79
2022/03/07 01:36:56;;;;;;;24.02;20.45;;;;;;;;;;5040263;28;20417;-79
2022/03/07 01:39:23;;;;;;;23.92;20.17;;;;;;;;;;5040477;28;20999;-79
2022/03/07 01:41:50;;;;;;;28.50;20.50;;;;;;;;;;5034585;28;20423;-78
2022/03/07 01:44:18;;;;;;;27.05;19.90;;;;;;;;;;5037593;28;20431;-79
2022/03/07 01:46:44;;;;;;;27.00;20.65;;;;;;;;;;5034696;28;20462;-78
2022/03/07 01:49:10;;;;;;;26.38;20.42;;;;;;;;;;5035963;28;20933;-79
2022/03/07 01:51:38;;;;;;;32.10;22.42;;;;;;;;;;5038437;28;21048;-78
2022/03/07 01:54:04;;;;;;;26.67;21.50;;;;;;;;;;5038544;28;20910;-79
2022/03/07 01:56:31;;;;;;;29.65;23.30;;;;;;;;;;5039197;28;20430;-79
2022/03/07 01:58:58;;;;;;;32.78;23.98;;;;;;;;;;5057709;28;20933;-78
2022/03/07 02:01:24;;;;;;;30.95;22.75;;;;;;;;;;5053354;28;20508;-79
2022/03/07 02:03:51;;;;;;;30.77;23.23;;;;;;;;;;5050180;28;20475;-79
2022/03/07 02:06:18;;;;;;;30.85;23.45;;;;;;;;;;5060314;28;20423;-79
2022/03/07 02:08:45;;;;;;;32.30;23.70;;;;;;;;;;5055266;28;20428;-78
2022/03/07 02:11:11;;;;;;;36.45;24.80;;;;;;;;;;5059410;28;20417;-78
2022/03/07 02:13:37;;;;;;;32.03;23.27;;;;;;;;;;5053784;28;20505;-79
2022/03/07 02:16:05;;;;;;;28.98;21.70;;;;;;;;;;5056526;28;20431;-79
2022/03/07 02:18:32;;;;;;;30.27;22.77;;;;;;;;;;5054742;28;20437;-79
2022/03/07 02:21:03;;;;;;;31.83;25.00;;;;;;;;;;5054233;28;20439;-78
2022/03/07 02:23:30;;;;;;;32.23;23.90;;;;;;;;;;5054792;28;20414;-76
2022/03/07 02:25:57;;;;;;;31.23;23.75;;;;;;;;;;5055197;28;20498;-79
2022/03/07 02:28:23;;;;;;;29.90;24.00;;;;;;;;;;5056078;28;20478;-79
2022/03/07 02:30:51;;;;;;;31.15;24.00;;;;;;;;;;5054281;28;20422;-79
2022/03/07 02:33:17;;;;;;;32.47;23.50;;;;;;;;;;5054852;28;20848;-79
2022/03/07 02:35:43;;;;;;;33.03;23.88;;;;;;;;;;5054568;28;20775;-79
2022/03/07 02:38:14;;;;;;;30.63;24.08;;;;;;;;;;5054766;28;20425;-78
2022/03/07 02:40:42;;;;;;;26.98;22.77;;;;;;;;;;5055914;28;20509;-79
2022/03/07 02:43:09;;;;;;;30.52;21.50;;;;;;;;;;5059238;28;20417;-79
2022/03/07 02:45:35;;;;;;;30.75;23.50;;;;;;;;;;5055346;28;20489;-79
2022/03/07 02:48:01;;;;;;;28.05;22.55;;;;;;;;;;5055889;28;20425;-79
2022/03/07 02:50:28;;;;;;;29.52;22.02;;;;;;;;;;5056676;28;20903;-78
2022/03/07 02:52:56;;;;;;;28.65;21.95;;;;;;;;;;5059216;28;20470;-79
2022/03/07 02:55:22;;;;;;;27.88;21.08;;;;;;;;;;5060235;28;20434;-78
2022/03/07 02:57:50;;;;;;;29.13;21.80;;;;;;;;;;5056733;28;20429;-79
2022/03/07 03:00:16;;;;;;;28.40;21.73;;;;;;;;;;5058555;28;20427;-78
2022/03/07 03:02:42;;;;;;;32.03;22.60;;;;;;;;;;5061780;28;20413;-76
2022/03/07 03:05:09;;;;;;;27.25;21.88;;;;;;;;;;5060155;28;20417;-78
2022/03/07 03:07:36;;;;;;;28.40;21.95;;;;;;;;;;5059168;28;20421;-78
2022/03/07 03:10:02;;;;;;;29.00;21.65;;;;;;;;;;5057562;28;20433;-78
2022/03/07 03:12:28;;;;;;;25.83;21.20;;;;;;;;;;5059254;28;20989;-79
2022/03/07 03:14:56;;;;;;;32.65;21.58;;;;;;;;;;5061602;28;20766;-79
2022/03/07 03:17:22;;;;;;;30.63;22.42;;;;;;;;;;5057316;28;20456;-78
2022/03/07 03:19:48;;;;;;;26.95;21.52;;;;;;;;;;5059059;28;20425;-78
2022/03/07 03:22:15;;;;;;;28.17;20.20;;;;;;;;;;5058712;28;20496;-78
2022/03/07 03:24:41;;;;;;;29.08;21.77;;;;;;;;;;5062092;28;20421;-79
2022/03/07 03:27:07;;;;;;;30.05;22.08;;;;;;;;;;5056197;28;20412;-79
2022/03/07 03:29:34;;;;;;;29.58;22.05;;;;;;;;;;5057094;28;20432;-79
2022/03/07 03:32:01;;;;;;;27.98;22.23;;;;;;;;;;5058477;28;20429;-78
2022/03/07 03:34:28;;;;;;;28.90;22.30;;;;;;;;;;5058651;28;20421;-79
2022/03/07 03:36:54;;;;;;;28.92;21.73;;;;;;;;;;5058349;28;20413;-79
2022/03/07 03:39:20;;;;;;;32.35;23.77;;;;;;;;;;5058355;28;20421;-79
2022/03/07 03:41:46;;;;;;;31.52;22.25;;;;;;;;;;5058660;28;20433;-79
2022/03/07 03:44:13;;;;;;;35.65;23.58;;;;;;;;;;5059083;28;20438;-78
2022/03/07 03:46:39;;;;;;;33.83;24.58;;;;;;;;;;5060805;28;20832;-79
2022/03/07 03:49:07;;;;;;;51.15;30.40;;;;;;;;;;5058761;28;20754;-79
2022/03/07 03:51:34;;;;;;;60.97;31.00;;;;;;;;;;5060085;28;20419;-78
2022/03/07 03:54:00;;;;;;;58.47;32.42;;;;;;;;;;5058735;28;20455;-79
2022/03/07 03:56:27;;;;;;;49.15;28.58;;;;;;;;;;5059768;28;20930;-79
2022/03/07 03:58:53;;;;;;;52.30;31.13;;;;;;;;;;5057588;28;20431;-78
2022/03/07 04:01:19;;;;;;;65.13;32.05;;;;;;;;;;5057541;28;20799;-79
2022/03/07 04:03:46;;;;;;;60.10;32.67;;;;;;;;;;5059066;28;20420;-79
2022/03/07 04:06:13;;;;;;;85.82;38.20;;;;;;;;;;5059337;28;20423;-78
2022/03/07 04:08:39;;;;;;;99.05;40.95;;;;;;;;;;5054742;28;20931;-79
2022/03/07 04:11:06;;;;;;;100.28;42.00;;;;;;;;;;5058799;28;20500;-79
2022/03/07 04:13:32;;;;;;;63.45;35.35;;;;;;;;;;5059003;28;20423;-78
2022/03/07 04:15:58;;;;;;;87.20;39.03;;;;;;;;;;5057384;28;20479;-79
2022/03/07 04:18:25;;;;;;;80.80;37.85;;;;;;;;;;5054418;28;20934;-79
2022/03/07 04:20:51;;;;;;;68.35;36.92;;;;;;;;;;5058194;28;20429;-78
2022/03/07 04:23:21;;;;;;;69.23;35.63;;;;;;;;;;5057324;28;20427;-79
2022/03/07 04:25:47;;;;;;;79.82;35.08;;;;;;;;;;5057845;28;20428;-79
2022/03/07 04:28:13;;;;;;;72.63;34.03;;;;;;;;;;5057363;28;20448;-78
2022/03/07 04:30:40;;;;;;;72.03;34.42;;;;;;;;;;5059358;28;20425;-79
2022/03/07 04:33:06;;;;;;;73.50;35.25;;;;;;;;;;5058371;28;20915;-80
2022/03/07 04:35:32;;;;;;;193.85;53.92;;;;;;;;;;5054435;28;20434;-79
2022/03/07 04:38:00;;;;;;;107.28;44.00;;;;;;;;;;5057570;28;20432;-77
2022/03/07 04:40:28;;;;;;;91.88;44.47;;;;;;;;;;5058581;28;20919;-79
2022/03/07 04:42:55;;;;;;;126.85;47.00;;;;;;;;;;5056965;28;20447;-79
2022/03/07 04:45:22;;;;;;;100.90;41.58;;;;;;;;;;5058091;28;20464;-79
2022/03/07 04:47:49;;;;;;;70.57;36.40;;;;;;;;;;5054515;28;20621;-78
2022/03/07 04:50:15;;;;;;;83.53;39.13;;;;;;;;;;5057081;28;20433;-79
2022/03/07 04:52:42;;;;;;;70.45;35.05;;;;;;;;;;5056725;28;20811;-78
2022/03/07 04:55:09;;;;;;;73.05;35.55;;;;;;;;;;5059021;28;20807;-79
2022/03/07 04:57:37;;;;;;;86.75;38.90;;;;;;;;;;5056427;28;20415;-76
2022/03/07 05:00:04;;;;;;;90.85;38.80;;;;;;;;;;5054111;28;20477;-79
2022/03/07 05:02:30;;;;;;;67.23;32.30;;;;;;;;;;5056634;28;20776;-79
2022/03/07 05:04:57;;;;;;;63.78;31.75;;;;;;;;;;5057851;28;20418;-80
2022/03/07 05:07:24;;;;;;;87.75;35.97;;;;;;;;;;5054131;28;20432;-79
2022/03/07 05:09:50;;;;;;;75.03;35.58;;;;;;;;;;5058310;28;20956;-79
2022/03/07 05:12:16;;;;;;;50.97;30.25;;;;;;;;;;5056818;28;20421;-79
2022/03/07 05:14:44;;;;;;;80.97;31.00;;;;;;;;;;5056731;28;20905;-77
2022/03/07 05:17:10;;;;;;;57.97;29.17;;;;;;;;;;5060548;28;20748;-79
2022/03/07 05:19:36;;;;;;;57.30;28.53;;;;;;;;;;5057446;28;20421;-78
2022/03/07 05:22:03;;;;;;;47.83;29.02;;;;;;;;;;5052874;28;20484;-78
2022/03/07 05:24:29;;;;;;;45.72;26.83;;;;;;;;;;5056299;28;20421;-78
2022/03/07 05:26:55;;;;;;;47.72;25.70;;;;;;;;;;5057281;28;20403;-79
2022/03/07 05:29:22;;;;;;;47.67;24.88;;;;;;;;;;5057279;28;20430;-79
2022/03/07 05:31:49;;;;;;;57.43;26.43;;;;;;;;;;5050766;28;20440;-78
2022/03/07 05:34:16;;;;;;;87.80;31.07;;;;;;;;;;5056233;28;20959;-79
2022/03/07 05:36:42;;;;;;;46.55;26.73;;;;;;;;;;5054082;28;20848;-77
2022/03/07 05:39:10;;;;;;;56.70;29.83;;;;;;;;;;5054669;28;20432;-79
2022/03/07 05:41:37;;;;;;;61.65;27.63;;;;;;;;;;5055292;28;20786;-80
2022/03/07 05:44:03;;;;;;;75.38;31.10;;;;;;;;;;5055965;28;20510;-79
2022/03/07 05:46:29;;;;;;;51.43;27.30;;;;;;;;;;5056874;28;20417;-78
2022/03/07 05:48:57;;;;;;;61.47;26.38;;;;;;;;;;5054654;28;20944;-79
2022/03/07 05:51:24;;;;;;;83.70;30.57;;;;;;;;;;5058735;28;20422;-79
2022/03/07 05:53:50;;;;;;;82.68;31.13;;;;;;;;;;5056895;28;20429;-78
2022/03/07 05:56:17;;;;;;;69.90;29.67;;;;;;;;;;5060559;28;20494;-79
2022/03/07 05:58:43;;;;;;;44.03;26.70;;;;;;;;;;5055962;28;20429;-77
2022/03/07 06:01:09;;;;;;;50.13;24.80;;;;;;;;;;5055158;28;20421;-80
2022/03/07 06:03:36;;;;;;;77.55;26.45;;;;;;;;;;5056604;28;20421;-77
2022/03/07 06:06:03;;;;;;;166.40;37.77;;;;;;;;;;5054812;28;20444;-78
2022/03/07 06:08:30;;;;;;;137.05;34.25;;;;;;;;;;5048758;28;20429;-80
2022/03/07 06:10:56;;;;;;;244.10;47.17;;;;;;;;;;5056290;28;20419;-78
2022/03/07 06:13:22;;;;;;;162.65;40.38;;;;;;;;;;5059367;28;20456;-79
2022/03/07 06:15:48;;;;;;;130.05;35.28;;;;;;;;;;5056740;28;20431;-79
2022/03/07 06:18:15;;;;;;;346.20;59.83;;;;;;;;;;5050326;28;20421;-79
2022/03/07 06:20:41;;;;;;;286.20;51.05;;;;;;;;;;5056141;28;20478;-79
2022/03/07 06:23:09;;;;;;;214.75;44.15;;;;;;;;;;5054046;28;20421;-79
2022/03/07 06:25:35;;;;;;;97.65;35.88;;;;;;;;;;5056706;28;20486;-79
2022/03/07 06:28:01;;;;;;;76.38;30.65;;;;;;;;;;5055564;28;20447;-78
2022/03/07 06:30:28;;;;;;;78.32;30.50;;;;;;;;;;5061242;28;20415;-80
2022/03/07 06:32:54;;;;;;;85.35;33.47;;;;;;;;;;5062437;28;20429;-79
2022/03/07 06:35:20;;;;;;;241.43;48.85;;;;;;;;;;5065085;28;20599;-80
2022/03/07 06:37:47;;;;;;;154.68;38.78;;;;;;;;;;5064697;28;20422;-80
2022/03/07 06:40:15;;;;;;;103.18;35.90;;;;;;;;;;5062413;28;20526;-77
2022/03/07 06:42:41;;;;;;;229.20;46.23;;;;;;;;;;5064108;28;20479;-79
2022/03/07 06:45:09;;;;;;;169.73;39.65;;;;;;;;;;5061447;28;20437;-79
2022/03/07 06:47:35;;;;;;;138.17;36.10;;;;;;;;;;5073418;23;20515;-84
2022/03/07 06:50:01;;;;;;;119.65;35.33;;;;;;;;;;5030441;28;21953;-84
2022/03/07 06:52:28;;;;;;;203.40;43.50;;;;;;;;;;5021575;28;20853;-84
2022/03/07 06:54:54;;;;;;;169.40;40.40;;;;;;;;;;5009085;28;20424;-84
2022/03/07 06:57:22;;;;;;;155.02;41.08;;;;;;;;;;5011529;28;20446;-81
2022/03/07 06:59:49;;;;;;;107.18;35.25;;;;;;;;;;5009230;28;20539;-84
2022/03/07 07:02:15;;;;;;;104.50;37.55;;;;;;;;;;5015885;28;20465;-84
2022/03/07 07:04:42;;;;;;;85.35;35.40;;;;;;;;;;5030371;28;20439;-83
2022/03/07 07:07:08;;;;;;;93.97;36.92;;;;;;;;;;5026048;28;20429;-84
2022/03/07 07:09:34;;;;;;;83.20;37.80;;;;;;;;;;5009307;28;20422;-84
2022/03/07 07:12:01;;;;;;;105.43;36.55;;;;;;;;;;5008023;28;20835;-83
2022/03/07 07:14:28;;;;;;;86.57;33.13;;;;;;;;;;5010403;28;20432;-84
2022/03/07 07:16:55;;;;;;;69.28;29.60;;;;;;;;;;5008627;28;20424;-84
2022/03/07 07:19:21;;;;;;;83.78;30.80;;;;;;;;;;5005019;28;20448;-83
2022/03/07 07:21:48;;;;;;;76.60;30.30;;;;;;;;;;5007218;28;20781;-84
2022/03/07 07:24:14;;;;;;;82.82;31.35;;;;;;;;;;5009351;28;20470;-82
2022/03/07 07:26:40;;;;;;;91.73;32.70;;;;;;;;;;5011522;28;20940;-82
2022/03/07 07:29:07;;;;;;;195.88;44.22;;;;;;;;;;5024775;28;20914;-83
2022/03/07 07:31:34;;;;;;;205.23;49.60;;;;;;;;;;5028042;28;20513;-83
2022/03/07 07:34:00;;;;;;;146.57;38.15;;;;;;;;;;5030885;28;20476;-82
2022/03/07 07:36:27;;;;;;;164.57;43.75;;;;;;;;;;5030751;28;20442;-82
2022/03/07 07:38:53;;;;;;;153.55;42.13;;;;;;;;;;5027541;28;20431;-83
2022/03/07 07:41:19;;;;;;;69.88;33.55;;;;;;;;;;5031379;28;20436;-83
2022/03/07 07:43:49;;;;;;;75.72;33.63;;;;;;;;;;5030743;28;20449;-81
2022/03/07 07:46:15;;;;;;;52.70;33.35;;;;;;;;;;5031782;28;20455;-81
2022/03/07 07:48:43;;;;;;;49.13;32.90;;;;;;;;;;5028782;28;21003;-82
2022/03/07 07:51:09;;;;;;;105.22;39.15;;;;;;;;;;5032407;28;20425;-82
2022/03/07 07:53:36;;;;;;;68.78;34.90;;;;;;;;;;5030214;28;20536;-82
2022/03/07 07:56:03;;;;;;;63.53;33.47;;;;;;;;;;5032217;28;20705;-82
2022/03/07 07:58:29;;;;;;;45.38;30.20;;;;;;;;;;5033104;28;20419;-82
2022/03/07 08:00:55;;;;;;;55.45;31.83;;;;;;;;;;5030383;28;20467;-82
2022/03/07 08:03:22;;;;;;;45.75;30.67;;;;;;;;;;5030699;28;20947;-82
2022/03/07 08:05:49;;;;;;;49.20;30.00;;;;;;;;;;5031983;28;20419;-82
2022/03/07 08:08:16;;;;;;;46.50;28.75;;;;;;;;;;5027817;28;20479;-82
2022/03/07 08:10:42;;;;;;;42.47;25.83;;;;;;;;;;5031620;28;20423;-81
2022/03/07 08:13:08;;;;;;;38.58;26.25;;;;;;;;;;5033947;28;20453;-83
2022/03/07 08:15:35;;;;;;;42.80;27.88;;;;;;;;;;5034190;28;20436;-83
2022/03/07 08:18:01;;;;;;;45.90;28.02;;;;;;;;;;5033340;28;20431;-81
2022/03/07 08:20:27;;;;;;;44.53;27.75;;;;;;;;;;5030595;28;20439;-81
2022/03/07 08:22:55;;;;;;;44.22;29.35;;;;;;;;;;5033264;28;20453;-82
2022/03/07 08:25:22;;;;;;;46.45;27.63;;;;;;;;;;5032055;28;20511;-82
2022/03/07 08:27:49;;;;;;;42.03;27.73;;;;;;;;;;5032682;28;20431;-81
2022/03/07 08:30:16;;;;;;;38.50;27.50;;;;;;;;;;5033594;28;20596;-81
2022/03/07 08:32:42;;;;;;;38.53;26.85;;;;;;;;;;5034712;28;20419;-82
2022/03/07 08:35:10;;;;;;;33.97;25.37;;;;;;;;;;5035040;28;20423;-82
2022/03/07 08:37:37;;;;;;;31.52;24.27;;;;;;;;;;5034595;28;20429;-81
2022/03/07 08:40:06;;;;;;;29.05;23.10;;;;;;;;;;5033942;28;20479;-82
2022/03/07 08:42:32;;;;;;;29.67;22.83;;;;;;;;;;5033012;28;20432;-82
2022/03/07 08:44:58;;;;;;;28.63;20.88;;;;;;;;;;5031673;28;20434;-82
2022/03/07 08:47:25;;;;;;;28.13;21.80;;;;;;;;;;5032799;28;20451;-82
2022/03/07 08:49:52;;;;;;;29.13;22.58;;;;;;;;;;5031909;28;20420;-81
2022/03/07 08:52:18;;;;;;;27.45;21.65;;;;;;;;;;5031229;28;20431;-82
2022/03/07 08:54:44;;;;;;;26.08;20.95;;;;;;;;;;5028758;28;20435;-81
2022/03/07 08:57:12;;;;;;;26.65;20.02;;;;;;;;;;5032231;28;20514;-82
2022/03/07 08:59:38;;;;;;;24.17;19.48;;;;;;;;;;5031677;28;20427;-82
2022/03/07 09:02:05;;;;;;;24.53;19.70;;;;;;;;;;5031173;28;20428;-82
2022/03/07 09:04:31;;;;;;;24.58;19.95;;;;;;;;;;5033809;28;20917;-83
2022/03/07 09:06:57;;;;;;;25.88;20.55;;;;;;;;;;5029560;28;20849;-81
2022/03/07 09:09:24;;;;;;;27.73;21.38;;;;;;;;;;5032250;28;20423;-82
2022/03/07 09:11:50;;;;;;;27.80;21.40;;;;;;;;;;5029050;28;20427;-80
2022/03/07 09:14:17;;;;;;;26.45;20.45;;;;;;;;;;5030914;28;20483;-82
2022/03/07 09:16:44;;;;;;;24.05;19.38;;;;;;;;;;5031473;28;20446;-81
2022/03/07 09:19:10;;;;;;;21.27;18.95;;;;;;;;;;5032921;28;20424;-82
2022/03/07 09:21:36;;;;;;;19.92;17.75;;;;;;;;;;5031552;28;20459;-82
2022/03/07 09:24:02;;;;;;;20.93;17.60;;;;;;;;;;5029437;28;20485;-82
2022/03/07 09:26:29;;;;;;;19.77;17.67;;;;;;;;;;5031755;28;20439;-82
2022/03/07 09:28:55;;;;;;;17.48;15.45;;;;;;;;;;5027232;28;20433;-82
2022/03/07 09:31:23;;;;;;;18.00;16.20;;;;;;;;;;5029904;28;20420;-83
2022/03/07 09:33:49;;;;;;;19.70;16.90;;;;;;;;;;5032920;28;20427;-83
2022/03/07 09:36:15;;;;;;;18.45;16.45;;;;;;;;;;5029402;28;20432;-83
2022/03/07 09:38:43;;;;;;;17.92;16.10;;;;;;;;;;5027227;28;20427;-81
2022/03/07 09:41:10;;;;;;;18.83;15.90;;;;;;;;;;5031929;28;20438;-81
2022/03/07 09:43:36;;;;;;;18.43;16.00;;;;;;;;;;5029937;28;20429;-83
2022/03/07 09:46:03;;;;;;;18.20;15.53;;;;;;;;;;5030239;28;20838;-83
2022/03/07 09:48:31;;;;;;;17.85;15.05;;;;;;;;;;5030215;28;20437;-83
2022/03/07 09:50:58;;;;;;;17.42;15.18;;;;;;;;;;5029050;28;20931;-83
2022/03/07 09:53:24;;;;;;;18.52;15.88;;;;;;;;;;5028707;28;20434;-82
2022/03/07 09:55:51;;;;;;;18.47;15.80;;;;;;;;;;5028849;28;20426;-82
2022/03/07 09:58:17;;;;;;;19.25;16.27;;;;;;;;;;5029252;28;20443;-82
2022/03/07 10:00:44;;;;;;;18.20;16.23;;;;;;;;;;5027413;28;20447;-80
2022/03/07 10:03:11;;;;;;;20.55;16.98;;;;;;;;;;5030948;28;20924;-82
2022/03/07 10:05:41;;;;;;;17.53;15.60;;;;;;;;;;5031116;28;20448;-83
2022/03/07 10:08:08;;;;;;;18.17;15.57;;;;;;;;;;5033776;28;20433;-83
2022/03/07 10:10:35;;;;;;;18.80;16.35;;;;;;;;;;5030808;28;20449;-82
2022/03/07 10:13:05;;;;;;;17.35;15.45;;;;;;;;;;5025995;28;20492;-80
2022/03/07 10:15:31;;;;;;;19.30;16.90;;;;;;;;;;5027054;28;20428;-82
2022/03/07 10:17:58;;;;;;;20.93;17.27;;;;;;;;;;5028874;28;20481;-80
2022/03/07 10:20:25;;;;;;;21.27;17.17;;;;;;;;;;5028119;28;20431;-82
2022/03/07 10:22:54;;;;;;;19.60;16.23;;;;;;;;;;5029689;28;20504;-84
2022/03/07 10:25:22;;;;;;;17.33;15.50;;;;;;;;;;5030039;28;20438;-82
2022/03/07 10:27:49;;;;;;;17.60;15.65;;;;;;;;;;5025709;28;20432;-82
2022/03/07 10:30:17;;;;;;;17.00;15.20;;;;;;;;;;5028752;28;21832;-82
2022/03/07 10:32:44;;;;;;;16.27;13.98;;;;;;;;;;5029460;28;20418;-82
2022/03/07 10:35:21;;;;;;;17.60;15.80;;;;;;;;;;5028803;28;20430;-82
2022/03/07 10:37:47;;;;;;;17.23;15.05;;;;;;;;;;5028884;28;20555;-81
2022/03/07 10:40:20;;;;;;;17.65;14.85;;;;;;;;;;5028736;28;21137;-81
2022/03/07 10:42:46;;;;;;;16.42;13.75;;;;;;;;;;5028315;28;20852;-85
2022/03/07 10:45:12;;;;;;;17.92;14.20;;;;;;;;;;5030875;28;20970;-83
2022/03/07 10:47:39;;;;;;;16.67;14.90;;;;;;;;;;5029280;28;20428;-82
2022/03/07 10:50:06;;;;;;;15.60;13.95;;;;;;;;;;5028577;28;20431;-82
2022/03/07 10:52:36;;;;;;;17.33;15.23;;;;;;;;;;5025087;28;20431;-84
2022/03/07 10:55:03;;;;;;;18.08;14.80;;;;;;;;;;5029207;28;20434;-82
2022/03/07 10:57:34;;;;;;;16.10;14.40;;;;;;;;;;5030059;28;20432;-83
2022/03/07 11:00:03;;;;;;;18.55;15.45;;;;;;;;;;5031967;28;20996;-82
2022/03/07 11:02:37;;;;;;;16.85;14.88;;;;;;;;;;5029082;28;20426;-82
2022/03/07 11:05:07;;;;;;;16.00;13.90;;;;;;;;;;5029554;28;20420;-82
2022/03/07 11:07:33;;;;;;;19.25;15.38;;;;;;;;;;5028411;28;20429;-82
2022/03/07 11:10:00;;;;;;;18.38;15.40;;;;;;;;;;5030526;28;20774;-82
2022/03/07 11:12:27;;;;;;;18.75;16.33;;;;;;;;;;5030643;28;20949;-82
2022/03/07 11:14:57;;;;;;;18.10;15.32;;;;;;;;;;5028215;28;20473;-83
2022/03/07 11:17:23;;;;;;;21.15;16.30;;;;;;;;;;5029755;28;20479;-82
2022/03/07 11:19:54;;;;;;;17.20;15.10;;;;;;;;;;5024511;28;20436;-82
2022/03/07 11:22:21;;;;;;;18.80;15.77;;;;;;;;;;5024103;28;20429;-84
2022/03/07 11:24:47;;;;;;;17.92;14.80;;;;;;;;;;5024220;28;20425;-82
2022/03/07 11:27:16;;;;;;;21.90;15.60;;;;;;;;;;5028139;28;20419;-82
2022/03/07 11:29:42;;;;;;;21.75;16.50;;;;;;;;;;5026074;28;20522;-79
2022/03/07 11:32:11;;;;;;;21.45;16.90;;;;;;;;;;5028363;28;20421;-81
2022/03/07 11:34:37;;;;;;;18.63;16.63;;;;;;;;;;5027168;28;20436;-81
2022/03/07 11:37:15;;;;;;;22.77;17.40;;;;;;;;;;5027399;28;20426;-81
2022/03/07 11:39:41;;;;;;;24.67;18.58;;;;;;;;;;5023758;28;20923;-81
2022/03/07 11:42:08;;;;;;;22.23;17.65;;;;;;;;;;5025058;28;20795;-81
2022/03/07 11:44:35;;;;;;;22.88;16.63;;;;;;;;;;5025275;28;20428;-81
2022/03/07 11:47:08;;;;;;;18.93;14.20;;;;;;;;;;5023721;28;20425;-81
2022/03/07 11:49:35;;;;;;;20.30;14.57;;;;;;;;;;5024851;28;20471;-80
2022/03/07 11:52:03;;;;;;;20.80;16.65;;;;;;;;;;5024821;28;20441;-80
2022/03/07 11:54:29;;;;;;;22.15;17.05;;;;;;;;;;5026120;28;20413;-79
2022/03/07 11:57:05;;;;;;;17.88;12.60;;;;;;;;;;5024226;28;20467;-81
2022/03/07 11:59:32;;;;;;;7.28;5.30;;;;;;;;;;5023957;28;20473;-81
2022/03/07 12:01:58;;;;;;;3.30;2.83;;;;;;;;;;5022789;28;21071;-80
2022/03/07 12:04:24;;;;;;;4.47;3.83;;;;;;;;;;5025269;28;20984;-80
2022/03/07 12:06:52;;;;;;;4.18;3.60;;;;;;;;;;5023109;28;20448;-80
2022/03/07 12:09:26;;;;;;;3.08;2.65;;;;;;;;;;5021310;28;20816;-81
2022/03/07 12:11:59;;;;;;;3.30;3.00;;;;;;;;;;5019953;28;20758;-81
2022/03/07 12:14:26;;;;;;;3.20;2.65;;;;;;;;;;5024147;28;20428;-81
2022/03/07 12:16:52;;;;;;;2.10;1.80;;;;;;;;;;5023430;28;20465;-81
2022/03/07 12:19:20;;;;;;;5.07;1.80;;;;;;;;;;5024507;28;20574;-80
2022/03/07 12:21:47;;;;;;;2.17;1.60;;;;;;;;;;5023991;28;20419;-82
2022/03/07 12:24:15;;;;;;;3.15;1.80;;;;;;;;;;5025241;28;21208;-81
2022/03/07 12:26:45;;;;;;;2.45;1.77;;;;;;;;;;5023781;28;20439;-78
2022/03/07 12:29:12;;;;;;;2.92;2.05;;;;;;;;;;5024194;28;20439;-80
2022/03/07 12:31:38;;;;;;;1.30;1.20;;;;;;;;;;5022660;28;20513;-80
2022/03/07 12:34:07;;;;;;;4.30;2.60;;;;;;;;;;5025577;28;20468;-80
2022/03/07 12:36:33;;;;;;;2.63;1.60;;;;;;;;;;5023594;28;21000;-81
2022/03/07 12:39:00;;;;;;;3.20;1.40;;;;;;;;;;5022873;28;21055;-81
2022/03/07 12:41:30;;;;;;;3.20;1.58;;;;;;;;;;5022994;28;20830;-81
2022/03/07 12:43:56;;;;;;;2.70;1.35;;;;;;;;;;5004103;28;20660;-81
2022/03/07 12:46:23;;;;;;;1.98;1.20;;;;;;;;;;5005644;28;20436;-81
2022/03/07 12:48:50;;;;;;;3.08;1.70;;;;;;;;;;5042744;23;20455;-81
2022/03/07 12:51:18;;;;;;;2.78;1.80;;;;;;;;;;5013237;28;20428;-85
2022/03/07 12:53:48;;;;;;;2.10;1.60;;;;;;;;;;5030726;28;20430;-83
2022/03/07 12:56:15;;;;;;;2.08;1.63;;;;;;;;;;5032042;28;20431;-83
2022/03/07 12:58:47;;;;;;;1.83;1.70;;;;;;;;;;5032183;28;20485;-84
2022/03/07 13:01:14;;;;;;;3.40;1.50;;;;;;;;;;5031123;28;20777;-83
2022/03/07 13:03:40;;;;;;;1.70;0.98;;;;;;;;;;5031305;28;20430;-83
2022/03/07 13:06:06;;;;;;;2.05;1.20;;;;;;;;;;5034162;28;20426;-83
2022/03/07 13:08:33;;;;;;;1.25;1.15;;;;;;;;;;5031787;28;20429;-84
2022/03/07 13:10:59;;;;;;;1.48;1.30;;;;;;;;;;5030960;28;20421;-84
2022/03/07 13:13:25;;;;;;;0.93;0.90;;;;;;;;;;5030548;28;20941;-83
2022/03/07 13:15:53;;;;;;;1.50;1.00;;;;;;;;;;5031692;28;20429;-83
2022/03/07 13:18:19;;;;;;;2.70;1.20;;;;;;;;;;5033759;28;20428;-83
2022/03/07 13:20:46;;;;;;;1.92;1.50;;;;;;;;;;5026078;28;20437;-83
2022/03/07 13:23:12;;;;;;;2.30;1.70;;;;;;;;;;5027974;28;20423;-84
2022/03/07 13:25:39;;;;;;;2.70;1.80;;;;;;;;;;5030147;28;20481;-84
2022/03/07 13:28:06;;;;;;;3.10;2.10;;;;;;;;;;5030260;28;20438;-83
2022/03/07 13:30:33;;;;;;;2.35;1.90;;;;;;;;;;5034855;28;20450;-83
2022/03/07 13:33:04;;;;;;;2.50;1.77;;;;;;;;;;5032266;28;20433;-83
2022/03/07 13:35:31;;;;;;;3.00;2.05;;;;;;;;;;5032308;28;20442;-84
2022/03/07 13:37:57;;;;;;;2.37;1.90;;;;;;;;;;5029840;28;20427;-83
2022/03/07 13:40:25;;;;;;;3.38;2.15;;;;;;;;;;5031836;28;20797;-81
2022/03/07 13:42:52;;;;;;;2.90;2.28;;;;;;;;;;5032019;28;20416;-81
2022/03/07 13:45:20;;;;;;;3.33;2.22;;;;;;;;;;5033207;28;20435;-81
2022/03/07 13:47:47;;;;;;;2.10;1.90;;;;;;;;;;5031327;28;20438;-82
2022/03/07 13:50:16;;;;;;;2.83;2.13;;;;;;;;;;5031312;28;20909;-83
2022/03/07 13:52:43;;;;;;;4.10;2.40;;;;;;;;;;5030570;28;20807;-82
2022/03/07 13:55:10;;;;;;;3.20;2.30;;;;;;;;;;5031575;28;20431;-83
2022/03/07 13:57:38;;;;;;;2.42;2.22;;;;;;;;;;5031815;28;20434;-83
2022/03/07 14:00:08;;;;;;;2.95;2.50;;;;;;;;;;5032642;28;20427;-83
2022/03/07 14:02:37;;;;;;;3.80;2.80;;;;;;;;;;5031443;28;20419;-83
2022/03/07 14:05:03;;;;;;;3.00;2.70;;;;;;;;;;5029529;28;20430;-84
2022/03/07 14:07:31;;;;;;;2.97;2.67;;;;;;;;;;5032260;28;20920;-83
2022/03/07 14:10:01;;;;;;;2.47;2.20;;;;;;;;;;5028453;28;20444;-84
2022/03/07 14:12:28;;;;;;;2.70;2.50;;;;;;;;;;5031070;28;20415;-84
2022/03/07 14:15:02;;;;;;;2.30;2.10;;;;;;;;;;5026149;28;20916;-84
2022/03/07 14:17:28;;;;;;;3.42;2.35;;;;;;;;;;5026886;28;20431;-86
2022/03/07 14:19:55;;;;;;;2.50;2.30;;;;;;;;;;5026338;28;20433;-83